Unionville, Nevada
Current Conditions -  °F | °C
As of 10:56 PM on Thursday 27 Nov 2014 (Local Time) from KWMC Reporting Station
Clear Clear  
Wind Chill: 43°   Ceiling: Unl
Heat Index: 48°   Visibility: 10mi
Dew Point: 22°   Wind: 10mph
Humidity: 36%   Direction: 190°S
Pressure: 30.07"   Gusts: NA
Location:  40.601°N, 117.984°W
Report Text: KWMC 280656Z AUTO 19009KT 10SM CLR 09/M06 A3007 RMK AO2 SLP161 T00891056
Loading
Personal Weather Stations






























Interactive Weather Map New forecast layout! Learn more

10-Day Weather Forecast

Advertisements
Track Severe Weather on mobile